Time;durP1;ratioP1;P1;durP2;ratioP2;P2;SDS_P1;SDS_P2;PMS_P1;PMS_P2;Temp;Humidity;BMP_temperature;BMP_pressure;BME280_temperature;BME280_humidity;BME280_pressure;Samples;Min_cycle;Max_cycle;Signal;HPM_P1;HPM_P2
2024/03/06 00:01:51;;;;;;;16.38;8.98;;;3.90;99.90;;;;;;5017369;28;20026;-93
2024/03/06 00:04:17;;;;;;;17.90;9.13;;;3.80;99.90;;;;;;5017166;28;20026;-92
2024/03/06 00:06:43;;;;;;;17.83;9.20;;;3.70;99.90;;;;;;4999607;28;20117;-92
2024/03/06 00:09:08;;;;;;;17.35;9.05;;;3.70;99.90;;;;;;4999835;28;20029;-92
2024/03/06 00:11:37;;;;;;;20.27;9.80;;;3.60;99.90;;;;;;5000003;28;20113;-91
2024/03/06 00:14:05;;;;;;;18.10;9.45;;;3.50;99.90;;;;;;5000051;28;20040;-90
2024/03/06 00:16:33;;;;;;;17.35;9.27;;;3.50;99.90;;;;;;4998832;28;20018;-93
2024/03/06 00:18:59;;;;;;;20.65;9.52;;;3.40;99.90;;;;;;5016783;28;20022;-92
2024/03/06 00:21:25;;;;;;;18.38;8.80;;;3.40;99.90;;;;;;4999316;28;20025;-92
2024/03/06 00:23:50;;;;;;;17.05;9.25;;;3.30;99.90;;;;;;4999334;28;20065;-91
2024/03/06 00:26:16;;;;;;;20.80;9.63;;;3.30;99.90;;;;;;5017039;28;20022;-92
2024/03/06 00:28:42;;;;;;;20.17;9.88;;;3.30;99.90;;;;;;5016536;28;20061;-91
2024/03/06 00:31:07;;;;;;;16.92;9.38;;;3.30;99.90;;;;;;5018187;28;20022;-92
2024/03/06 00:33:33;;;;;;;18.25;9.25;;;3.30;99.90;;;;;;5002339;28;20287;-92
2024/03/06 00:35:59;;;;;;;20.17;9.63;;;3.20;99.90;;;;;;5017590;28;20022;-92
2024/03/06 00:38:24;;;;;;;20.50;9.32;;;3.30;99.90;;;;;;4999009;28;20109;-92
2024/03/06 00:40:50;;;;;;;16.88;8.25;;;3.30;99.90;;;;;;4998908;28;20117;-92
2024/03/06 00:43:16;;;;;;;21.13;9.80;;;3.30;99.90;;;;;;5017626;28;20033;-92
2024/03/06 00:45:41;;;;;;;17.25;9.48;;;3.30;99.90;;;;;;5000535;28;20425;-93
2024/03/06 00:48:07;;;;;;;18.05;9.65;;;3.40;99.90;;;;;;5001444;28;20032;-92
2024/03/06 00:50:33;;;;;;;21.70;12.00;;;3.30;99.90;;;;;;5005994;28;20026;-92
2024/03/06 00:52:59;;;;;;;17.08;9.80;;;3.30;99.90;;;;;;5024692;28;20045;-91
2024/03/06 00:55:25;;;;;;;16.60;9.77;;;3.30;99.90;;;;;;5024539;28;20045;-92
2024/03/06 00:57:50;;;;;;;19.42;10.45;;;3.30;99.90;;;;;;5036920;28;20029;-86
2024/03/06 01:00:17;;;;;;;17.02;9.73;;;3.20;99.90;;;;;;5038171;28;20037;-89
2024/03/06 01:02:43;;;;;;;15.63;9.02;;;3.20;99.90;;;;;;5038359;28;20034;-89
2024/03/06 01:05:09;;;;;;;23.95;11.88;;;3.20;99.90;;;;;;5007031;28;20036;-93
2024/03/06 01:07:37;;;;;;;23.08;10.85;;;3.20;99.90;;;;;;5023052;28;20041;-92
2024/03/06 01:10:03;;;;;;;18.30;10.38;;;3.20;99.90;;;;;;5020391;28;20127;-94
2024/03/06 01:12:29;;;;;;;18.48;9.57;;;3.20;99.90;;;;;;4998877;28;20014;-92
2024/03/06 01:14:55;;;;;;;22.23;10.68;;;3.10;99.90;;;;;;5019277;28;20438;-93
2024/03/06 01:17:21;;;;;;;20.08;10.48;;;3.10;99.90;;;;;;5017882;28;20017;-93
2024/03/06 01:19:46;;;;;;;21.33;10.15;;;3.00;99.90;;;;;;4999142;28;20037;-92
2024/03/06 01:22:15;;;;;;;17.77;9.82;;;3.00;99.90;;;;;;5016837;28;20116;-91
2024/03/06 01:24:40;;;;;;;19.60;10.98;;;2.90;99.90;;;;;;4999491;28;20037;-91
2024/03/06 01:27:06;;;;;;;20.98;11.63;;;2.90;99.90;;;;;;5006559;28;20026;-90
2024/03/06 01:29:32;;;;;;;23.70;10.70;;;2.80;99.90;;;;;;5027909;28;20041;-91
2024/03/06 01:31:59;;;;;;;24.48;10.40;;;2.80;99.90;;;;;;5010850;28;20021;-91
2024/03/06 01:34:25;;;;;;;27.58;10.68;;;2.70;99.90;;;;;;5004476;28;20021;-93
2024/03/06 01:36:51;;;;;;;22.08;10.80;;;2.70;99.90;;;;;;5006381;28;20081;-90
2024/03/06 01:39:17;;;;;;;18.48;10.35;;;2.60;99.90;;;;;;5033235;28;20065;-87
2024/03/06 01:41:47;;;;;;;22.10;10.80;;;2.60;99.90;;;;;;5032069;28;20730;-93
2024/03/06 01:44:14;;;;;;;23.15;11.27;;;2.60;99.90;;;;;;5004001;28;20030;-93
2024/03/06 01:46:40;;;;;;;23.52;11.50;;;2.60;99.90;;;;;;5023514;28;20030;-91
2024/03/06 01:49:06;;;;;;;26.55;11.20;;;2.60;99.90;;;;;;5019215;28;20089;-91
2024/03/06 01:51:32;;;;;;;24.98;11.70;;;2.60;99.90;;;;;;5000855;28;20456;-90
2024/03/06 01:54:00;;;;;;;23.98;11.77;;;2.60;99.90;;;;;;4999286;28;20018;-91
2024/03/06 01:56:28;;;;;;;21.55;10.70;;;2.60;99.90;;;;;;5020130;28;20022;-93
2024/03/06 01:58:54;;;;;;;23.77;11.52;;;2.50;99.90;;;;;;5012003;28;20033;-92
2024/03/06 02:01:22;;;;;;;23.63;10.98;;;2.50;99.90;;;;;;5030131;28;20037;-92
2024/03/06 02:03:48;;;;;;;21.73;10.73;;;2.50;99.90;;;;;;5015369;28;20069;-92
2024/03/06 02:06:15;;;;;;;21.88;11.23;;;2.50;99.90;;;;;;5010877;28;20622;-93
2024/03/06 02:08:41;;;;;;;23.55;10.60;;;2.50;99.90;;;;;;5016488;28;20026;-91
2024/03/06 02:11:07;;;;;;;19.50;9.55;;;2.50;99.90;;;;;;5001448;28;20089;-93
2024/03/06 02:13:33;;;;;;;18.73;9.93;;;2.40;99.90;;;;;;5000351;28;20288;-92
2024/03/06 02:15:59;;;;;;;22.60;10.68;;;2.30;99.90;;;;;;5001007;28;20143;-92
2024/03/06 02:18:24;;;;;;;21.42;9.98;;;2.30;99.90;;;;;;4999732;28;20037;-94
2024/03/06 02:20:51;;;;;;;21.40;10.20;;;2.30;99.90;;;;;;5016388;28;20033;-93
2024/03/06 02:23:20;;;;;;;17.42;9.85;;;2.20;99.90;;;;;;4995643;28;20443;-94
2024/03/06 02:25:47;;;;;;;21.80;10.07;;;2.20;99.90;;;;;;4995069;28;20025;-89
2024/03/06 02:28:13;;;;;;;21.15;9.95;;;2.10;99.90;;;;;;4992683;28;20065;-92
2024/03/06 02:30:38;;;;;;;20.00;10.18;;;2.10;99.90;;;;;;4994806;28;20023;-93
2024/03/06 02:33:06;;;;;;;19.25;9.80;;;2.00;99.90;;;;;;4993791;28;20076;-92
2024/03/06 02:35:32;;;;;;;23.15;9.82;;;2.10;99.90;;;;;;4994910;28;20017;-91
2024/03/06 02:37:59;;;;;;;21.20;9.93;;;2.00;99.90;;;;;;4994282;28;20038;-90
2024/03/06 02:40:25;;;;;;;19.88;10.20;;;2.00;99.90;;;;;;4999743;28;20023;-93
2024/03/06 02:42:51;;;;;;;22.52;10.35;;;2.00;99.90;;;;;;5002124;28;20048;-94
2024/03/06 02:45:16;;;;;;;24.52;10.80;;;2.00;99.90;;;;;;5001954;28;20026;-92
2024/03/06 02:47:44;;;;;;;23.02;10.50;;;2.00;99.90;;;;;;5000040;28;20113;-92
2024/03/06 02:50:10;;;;;;;21.23;10.15;;;2.00;99.90;;;;;;5003970;28;20050;-92
2024/03/06 02:52:36;;;;;;;23.35;10.68;;;2.00;99.90;;;;;;5008343;28;20030;-92
2024/03/06 02:55:02;;;;;;;27.55;12.00;;;2.00;99.90;;;;;;5011815;28;20034;-92
2024/03/06 02:57:28;;;;;;;24.35;11.73;;;2.00;99.90;;;;;;5007074;28;20031;-92
2024/03/06 02:59:57;;;;;;;28.92;11.30;;;2.00;99.90;;;;;;5004115;28;20027;-92
2024/03/06 03:02:24;;;;;;;31.95;12.20;;;2.00;99.90;;;;;;5004635;28;20030;-94
2024/03/06 03:04:50;;;;;;;29.20;12.20;;;2.00;99.90;;;;;;5003260;28;20032;-93
2024/03/06 03:07:16;;;;;;;36.55;13.27;;;2.00;99.90;;;;;;5007592;28;20030;-92
2024/03/06 03:09:41;;;;;;;30.67;12.48;;;1.90;99.90;;;;;;5012199;28;20037;-92
2024/03/06 03:12:07;;;;;;;53.35;13.85;;;2.00;99.90;;;;;;5007455;28;20031;-91
2024/03/06 03:14:33;;;;;;;42.53;11.95;;;1.90;99.90;;;;;;5006659;28;20030;-93
2024/03/06 03:17:00;;;;;;;35.17;12.82;;;2.00;99.90;;;;;;5008334;28;20022;-93
2024/03/06 03:19:26;;;;;;;34.17;11.93;;;1.90;99.90;;;;;;5006095;28;20109;-92
2024/03/06 03:21:52;;;;;;;36.22;12.95;;;1.90;99.90;;;;;;5010837;28;20060;-94
2024/03/06 03:24:20;;;;;;;42.78;12.60;;;2.00;99.90;;;;;;5009645;28;20045;-94
2024/03/06 03:26:45;;;;;;;39.83;12.63;;;2.00;99.90;;;;;;5026842;28;20022;-91
2024/03/06 03:29:11;;;;;;;59.47;14.93;;;2.00;99.90;;;;;;5024409;28;20044;-92
2024/03/06 03:31:38;;;;;;;67.72;13.85;;;2.00;99.90;;;;;;5004448;28;20053;-93
2024/03/06 03:34:05;;;;;;;59.65;13.38;;;2.00;99.90;;;;;;5007622;28;20531;-93
2024/03/06 03:36:31;;;;;;;71.32;13.98;;;2.00;99.90;;;;;;5029661;28;20049;-93
2024/03/06 03:38:56;;;;;;;56.70;12.93;;;2.00;99.90;;;;;;5009469;28;20038;-92
2024/03/06 03:41:22;;;;;;;85.18;14.48;;;1.90;99.90;;;;;;5018941;28;20105;-91
2024/03/06 03:43:49;;;;;;;86.22;13.05;;;2.00;99.90;;;;;;5000411;28;20088;-92
2024/03/06 03:46:14;;;;;;;43.03;12.60;;;2.00;99.90;;;;;;5002758;28;20022;-92
2024/03/06 03:48:40;;;;;;;60.97;12.07;;;2.00;99.90;;;;;;5021008;28;20036;-93
2024/03/06 03:51:06;;;;;;;44.53;13.45;;;2.00;99.90;;;;;;5003537;28;20022;-92
2024/03/06 03:53:35;;;;;;;44.65;12.90;;;2.00;99.90;;;;;;5002581;28;20049;-92
2024/03/06 03:56:03;;;;;;;51.45;12.35;;;2.00;99.90;;;;;;5020400;28;20026;-92
2024/03/06 03:58:28;;;;;;;65.25;11.85;;;2.00;99.90;;;;;;5003378;28;20065;-93
2024/03/06 04:00:55;;;;;;;45.97;12.00;;;2.00;99.90;;;;;;5005071;28;20030;-92
2024/03/06 04:03:21;;;;;;;63.03;12.93;;;2.00;99.90;;;;;;5021371;28;20495;-92
2024/03/06 04:05:48;;;;;;;102.05;13.88;;;2.00;99.90;;;;;;5022743;28;20025;-93
2024/03/06 04:08:14;;;;;;;75.47;13.02;;;2.10;99.90;;;;;;5004071;28;20044;-92
2024/03/06 04:10:41;;;;;;;133.40;14.85;;;2.00;99.90;;;;;;5024391;28;20022;-91
2024/03/06 04:13:07;;;;;;;56.80;14.18;;;2.00;99.90;;;;;;5026843;28;20201;-93
2024/03/06 04:15:33;;;;;;;43.75;12.18;;;2.00;99.90;;;;;;5009170;28;20030;-92
2024/03/06 04:17:58;;;;;;;55.97;13.60;;;2.00;99.90;;;;;;5010833;28;20062;-92
2024/03/06 04:20:24;;;;;;;89.88;15.57;;;2.00;99.90;;;;;;5028883;28;20026;-93
2024/03/06 04:22:51;;;;;;;41.70;14.02;;;2.00;99.90;;;;;;5027256;28;20050;-91
2024/03/06 04:25:17;;;;;;;144.35;15.90;;;2.00;99.90;;;;;;5011065;28;20068;-93
2024/03/06 04:27:43;;;;;;;237.68;23.17;;;2.00;99.90;;;;;;5026474;28;20026;-91
2024/03/06 04:30:09;;;;;;;51.15;16.33;;;2.00;99.90;;;;;;5028888;28;20625;-91
2024/03/06 04:32:35;;;;;;;65.75;16.77;;;2.00;99.90;;;;;;5028961;28;20098;-92
2024/03/06 04:35:00;;;;;;;62.85;15.07;;;2.00;99.90;;;;;;5011917;28;20114;-92
2024/03/06 04:37:29;;;;;;;119.97;15.80;;;2.00;99.90;;;;;;5028938;28;20036;-91
2024/03/06 04:39:54;;;;;;;60.88;15.50;;;2.00;99.90;;;;;;5028589;28;20051;-93
2024/03/06 04:42:20;;;;;;;47.60;14.93;;;2.00;99.90;;;;;;5028407;28;20034;-93
2024/03/06 04:44:46;;;;;;;48.30;14.82;;;2.00;99.90;;;;;;5011417;28;20033;-91
2024/03/06 04:47:12;;;;;;;45.03;15.18;;;2.00;99.90;;;;;;5014838;28;20037;-91
2024/03/06 04:49:38;;;;;;;42.60;13.50;;;2.10;99.90;;;;;;5032503;28;20105;-93
2024/03/06 04:52:04;;;;;;;70.50;14.15;;;2.10;99.90;;;;;;5031931;28;20026;-94
2024/03/06 04:54:30;;;;;;;61.67;15.27;;;2.10;99.90;;;;;;5013609;28;20404;-93
2024/03/06 04:56:56;;;;;;;66.82;13.57;;;2.20;99.90;;;;;;5031917;28;20056;-94
2024/03/06 04:59:21;;;;;;;42.33;13.73;;;2.20;99.90;;;;;;5029640;28;20032;-91
2024/03/06 05:01:47;;;;;;;57.65;12.30;;;2.20;99.90;;;;;;5029339;28;20061;-92
2024/03/06 05:04:13;;;;;;;271.40;19.23;;;2.20;99.90;;;;;;5033906;28;20129;-89
2024/03/06 05:06:38;;;;;;;57.75;13.93;;;2.10;99.90;;;;;;5020928;28;20082;-89
2024/03/06 05:09:05;;;;;;;49.40;14.63;;;2.10;99.90;;;;;;5020325;28;20038;-90
2024/03/06 05:11:32;;;;;;;59.08;14.25;;;2.10;99.90;;;;;;5036147;28;20018;-93
2024/03/06 05:13:59;;;;;;;64.93;14.90;;;2.10;99.90;;;;;;5029810;28;20009;-93
2024/03/06 05:16:26;;;;;;;76.78;14.05;;;2.10;99.90;;;;;;5015954;28;20013;-94
2024/03/06 05:18:52;;;;;;;214.27;19.92;;;2.10;99.90;;;;;;5008060;28;20072;-96
2024/03/06 05:21:18;;;;;;;59.72;13.60;;;2.10;99.90;;;;;;5008350;28;20070;-94
2024/03/06 05:23:44;;;;;;;65.82;15.85;;;2.10;99.90;;;;;;5013118;28;20050;-91
2024/03/06 05:26:09;;;;;;;97.38;14.57;;;2.10;99.90;;;;;;5034384;28;20033;-93
2024/03/06 05:28:35;;;;;;;52.75;14.70;;;2.10;99.90;;;;;;5035414;28;20080;-93
2024/03/06 05:31:01;;;;;;;259.20;19.48;;;2.10;99.90;;;;;;5015441;28;20014;-95
2024/03/06 05:33:28;;;;;;;227.25;18.85;;;2.10;99.90;;;;;;5014944;28;20045;-91
2024/03/06 05:35:54;;;;;;;75.28;15.63;;;2.00;99.90;;;;;;5032650;28;20014;-93
2024/03/06 05:38:22;;;;;;;69.18;14.32;;;2.00;99.90;;;;;;5017442;28;20100;-91
2024/03/06 05:40:47;;;;;;;38.38;13.38;;;2.00;99.90;;;;;;5015471;28;20022;-91
2024/03/06 05:43:13;;;;;;;39.50;14.27;;;2.00;99.90;;;;;;5011110;28;20122;-92
2024/03/06 05:45:38;;;;;;;44.13;14.00;;;2.00;99.90;;;;;;5009560;28;20080;-94
2024/03/06 05:48:04;;;;;;;51.15;13.95;;;2.10;99.90;;;;;;5029060;28;20049;-94
2024/03/06 05:50:30;;;;;;;46.22;12.45;;;2.00;99.90;;;;;;5013131;28;20030;-93
2024/03/06 05:52:57;;;;;;;104.47;15.68;;;2.00;99.90;;;;;;5031014;28;20029;-92
2024/03/06 05:55:23;;;;;;;33.50;14.20;;;2.10;99.90;;;;;;5014458;28;20030;-92
2024/03/06 05:57:49;;;;;;;29.85;13.57;;;2.00;99.90;;;;;;5008788;28;20061;-93
2024/03/06 06:00:17;;;;;;;32.33;12.30;;;2.00;99.90;;;;;;5011046;28;20036;-93
2024/03/06 06:02:45;;;;;;;31.17;13.07;;;2.00;99.90;;;;;;5013517;28;20048;-94
2024/03/06 06:05:11;;;;;;;30.88;13.75;;;2.00;99.90;;;;;;5028593;28;20044;-94
2024/03/06 06:07:37;;;;;;;30.20;12.95;;;2.00;99.90;;;;;;5032394;28;20472;-90
2024/03/06 06:10:08;;;;;;;41.70;14.77;;;2.00;99.90;;;;;;5017622;28;20038;-90
2024/03/06 06:12:34;;;;;;;36.80;14.98;;;2.00;99.90;;;;;;5017827;28;20021;-91
2024/03/06 06:15:00;;;;;;;38.33;15.98;;;2.00;99.90;;;;;;5016389;28;20037;-92
2024/03/06 06:17:25;;;;;;;43.28;15.93;;;2.00;99.90;;;;;;5015979;28;20034;-90
2024/03/06 06:19:51;;;;;;;49.10;17.08;;;2.00;99.90;;;;;;5015446;28;20021;-89
2024/03/06 06:22:16;;;;;;;43.33;15.63;;;2.00;99.90;;;;;;5015912;28;20046;-91
2024/03/06 06:24:42;;;;;;;41.65;15.40;;;2.00;99.90;;;;;;5033219;28;20100;-91
2024/03/06 06:27:08;;;;;;;41.10;15.15;;;2.00;99.90;;;;;;5018663;28;20044;-89
2024/03/06 06:29:34;;;;;;;43.42;15.50;;;2.10;99.90;;;;;;5020294;28;20026;-89
2024/03/06 06:31:59;;;;;;;41.78;14.90;;;2.10;99.90;;;;;;5019024;28;20201;-93
2024/03/06 06:34:27;;;;;;;36.70;14.05;;;2.10;99.90;;;;;;4999854;28;20037;-92
2024/03/06 06:36:53;;;;;;;43.95;16.60;;;2.10;99.90;;;;;;5012292;28;20041;-92
2024/03/06 06:39:19;;;;;;;45.85;16.25;;;2.10;99.90;;;;;;5030374;28;20029;-91
2024/03/06 06:41:45;;;;;;;41.10;15.75;;;2.10;99.90;;;;;;5018638;28;20026;-90
2024/03/06 06:44:10;;;;;;;40.25;15.18;;;2.20;99.90;;;;;;5019071;28;20110;-88
2024/03/06 06:46:36;;;;;;;34.60;13.15;;;2.20;99.90;;;;;;5036590;28;20095;-89
2024/03/06 06:49:01;;;;;;;36.55;14.15;;;2.20;99.90;;;;;;5019702;28;20010;-86
2024/03/06 06:51:27;;;;;;;37.60;15.50;;;2.20;99.90;;;;;;5019594;28;20018;-86
2024/03/06 06:53:54;;;;;;;40.33;14.27;;;2.20;99.90;;;;;;5033611;28;20061;-85
2024/03/06 06:56:23;;;;;;;31.85;14.48;;;2.20;99.90;;;;;;5019529;28;20018;-83
2024/03/06 06:58:49;;;;;;;40.10;15.68;;;2.30;99.90;;;;;;5036361;28;20029;-83
2024/03/06 07:01:16;;;;;;;39.53;16.02;;;2.20;99.90;;;;;;5036209;28;20060;-88
2024/03/06 07:03:42;;;;;;;39.75;14.77;;;2.20;99.90;;;;;;5036595;28;20026;-90
2024/03/06 07:06:08;;;;;;;46.28;16.52;;;2.30;99.90;;;;;;5019187;28;20010;-89
2024/03/06 07:08:33;;;;;;;45.00;17.13;;;2.30;99.90;;;;;;5019281;28;20022;-91
2024/03/06 07:10:59;;;;;;;41.00;17.10;;;2.30;99.90;;;;;;5036003;28;20018;-87
2024/03/06 07:13:25;;;;;;;38.85;15.25;;;2.30;99.90;;;;;;5019700;28;20014;-88
2024/03/06 07:15:51;;;;;;;41.50;16.15;;;2.30;99.90;;;;;;5019832;28;20006;-88
2024/03/06 07:18:17;;;;;;;41.05;16.00;;;2.30;99.90;;;;;;5035919;28;20010;-90
2024/03/06 07:20:42;;;;;;;42.10;14.90;;;2.30;99.90;;;;;;5019066;28;20018;-87
2024/03/06 07:23:09;;;;;;;38.85;15.38;;;2.30;99.90;;;;;;5036057;28;20038;-88
2024/03/06 07:25:34;;;;;;;40.47;16.38;;;2.30;99.90;;;;;;5021692;28;20045;-89
2024/03/06 07:28:00;;;;;;;46.63;17.77;;;2.40;99.90;;;;;;5022332;28;20014;-89
2024/03/06 07:30:25;;;;;;;44.08;17.80;;;2.40;99.90;;;;;;5022243;28;20046;-89
2024/03/06 07:32:51;;;;;;;44.13;15.70;;;2.40;99.90;;;;;;5021712;28;20022;-89
2024/03/06 07:35:17;;;;;;;44.85;14.80;;;2.40;99.90;;;;;;5022642;28;20029;-86
2024/03/06 07:37:44;;;;;;;44.38;16.73;;;2.50;99.90;;;;;;5040087;28;20045;-89
2024/03/06 07:40:10;;;;;;;41.20;16.30;;;2.50;99.90;;;;;;5022602;28;20010;-91
2024/03/06 07:42:37;;;;;;;43.70;15.60;;;2.50;99.90;;;;;;5022128;28;20034;-87
2024/03/06 07:45:04;;;;;;;39.58;16.60;;;2.60;99.90;;;;;;5038615;28;20064;-90
2024/03/06 07:47:30;;;;;;;46.10;17.10;;;2.60;99.90;;;;;;5039951;28;20036;-90
2024/03/06 07:49:55;;;;;;;40.67;15.60;;;2.60;99.90;;;;;;5040003;28;20025;-85
2024/03/06 07:52:21;;;;;;;41.13;15.20;;;2.70;99.90;;;;;;5022684;28;20018;-85
2024/03/06 07:54:47;;;;;;;45.83;17.10;;;2.60;99.90;;;;;;5022711;28;20018;-88
2024/03/06 07:57:12;;;;;;;45.65;17.23;;;2.70;99.90;;;;;;5039672;28;20014;-87
2024/03/06 07:59:38;;;;;;;39.63;16.08;;;2.70;99.90;;;;;;5038630;28;20025;-87
2024/03/06 08:02:04;;;;;;;46.35;17.67;;;2.70;99.90;;;;;;5017577;28;20018;-90
2024/03/06 08:04:30;;;;;;;40.78;15.85;;;2.80;99.90;;;;;;5039203;28;20036;-88
2024/03/06 08:06:56;;;;;;;42.33;16.48;;;2.80;99.90;;;;;;5039161;28;20006;-88
2024/03/06 08:09:23;;;;;;;43.80;17.58;;;2.90;99.90;;;;;;5039239;28;20034;-85
2024/03/06 08:11:49;;;;;;;44.55;16.42;;;2.90;99.90;;;;;;5017661;28;20057;-92
2024/03/06 08:14:17;;;;;;;45.40;15.25;;;3.00;99.90;;;;;;5021858;28;20022;-86
2024/03/06 08:16:42;;;;;;;48.92;17.20;;;3.00;99.90;;;;;;5021469;28;20026;-90
2024/03/06 08:19:09;;;;;;;46.28;15.45;;;3.00;99.90;;;;;;5035992;28;20074;-90
2024/03/06 08:21:35;;;;;;;41.13;16.02;;;3.10;99.90;;;;;;5021410;28;20049;-86
2024/03/06 08:24:01;;;;;;;48.33;16.40;;;3.10;99.90;;;;;;5037411;28;20030;-90
2024/03/06 08:26:26;;;;;;;47.03;17.30;;;3.20;99.90;;;;;;5037805;28;20022;-88
2024/03/06 08:28:53;;;;;;;43.10;15.85;;;3.20;99.90;;;;;;5022003;28;20097;-88
2024/03/06 08:31:18;;;;;;;44.33;15.68;;;3.20;99.90;;;;;;5021764;28;20026;-90
2024/03/06 08:33:44;;;;;;;46.28;16.17;;;3.30;99.90;;;;;;5021651;28;20032;-88
2024/03/06 08:36:10;;;;;;;39.53;16.08;;;3.40;99.90;;;;;;5015520;28;20061;-92
2024/03/06 08:38:36;;;;;;;47.92;16.67;;;3.50;99.90;;;;;;5032604;28;20053;-94
2024/03/06 08:41:01;;;;;;;43.67;17.10;;;3.50;99.90;;;;;;5010196;28;20488;-94
2024/03/06 08:43:27;;;;;;;34.15;14.60;;;3.60;99.90;;;;;;5027803;28;20057;-93
2024/03/06 08:45:52;;;;;;;54.55;16.52;;;3.70;99.90;;;;;;5028038;28;20056;-92
2024/03/06 08:48:18;;;;;;;52.92;16.58;;;3.80;99.90;;;;;;5018559;28;20034;-92
2024/03/06 08:50:44;;;;;;;50.70;17.55;;;3.90;99.90;;;;;;5023128;28;20026;-92
2024/03/06 08:53:09;;;;;;;53.30;18.63;;;4.00;99.90;;;;;;5014289;28;20030;-92
2024/03/06 08:55:35;;;;;;;51.67;17.38;;;4.00;99.90;;;;;;5006479;28;20065;-93
2024/03/06 08:58:01;;;;;;;50.97;16.90;;;4.10;99.90;;;;;;5023773;28;20021;-85
2024/03/06 09:00:26;;;;;;;67.43;18.23;;;4.20;99.90;;;;;;5027559;28;20087;-93
2024/03/06 09:02:53;;;;;;;63.90;19.98;;;4.20;99.90;;;;;;5024215;28;20041;-91
2024/03/06 09:05:20;;;;;;;74.68;21.27;;;4.30;99.90;;;;;;5025349;28;20037;-93
2024/03/06 09:07:46;;;;;;;86.93;21.15;;;4.40;99.90;;;;;;5027312;28;20132;-89
2024/03/06 09:10:13;;;;;;;86.35;21.52;;;4.50;99.90;;;;;;5015503;28;20022;-92
2024/03/06 09:12:38;;;;;;;78.13;21.92;;;4.60;99.90;;;;;;5012332;28;20026;-92
2024/03/06 09:15:07;;;;;;;86.72;23.42;;;4.70;99.90;;;;;;5018966;28;20022;-89
2024/03/06 09:17:32;;;;;;;80.03;22.73;;;4.80;99.90;;;;;;4998048;28;20419;-91
2024/03/06 09:19:58;;;;;;;66.75;19.58;;;4.90;99.90;;;;;;5017266;28;20026;-94
2024/03/06 09:22:24;;;;;;;69.20;19.95;;;5.00;99.90;;;;;;5003257;28;20057;-92
2024/03/06 09:24:49;;;;;;;60.08;19.23;;;5.10;99.90;;;;;;5004607;28;20026;-91
2024/03/06 09:27:16;;;;;;;63.60;17.25;;;5.20;99.90;;;;;;4998082;28;20018;-93
2024/03/06 09:29:43;;;;;;;56.35;18.30;;;5.30;99.90;;;;;;4996974;28;20041;-92
2024/03/06 09:32:08;;;;;;;59.63;16.63;;;5.30;99.90;;;;;;4997952;28;20671;-92
2024/03/06 09:34:34;;;;;;;72.45;21.15;;;5.40;99.90;;;;;;4999235;28;20029;-94
2024/03/06 09:37:00;;;;;;;65.78;19.65;;;5.50;99.90;;;;;;4999471;28;20033;-92
2024/03/06 09:39:26;;;;;;;62.15;19.67;;;5.60;99.90;;;;;;5015786;28;20013;-92
2024/03/06 09:41:53;;;;;;;71.50;21.40;;;5.70;99.90;;;;;;5017754;28;20036;-92
2024/03/06 09:44:20;;;;;;;67.93;23.17;;;5.90;99.90;;;;;;5002949;28;20074;-94
2024/03/06 09:46:47;;;;;;;76.80;21.77;;;6.10;99.90;;;;;;5019795;28;20018;-92
2024/03/06 09:49:15;;;;;;;55.92;21.30;;;6.20;99.90;;;;;;5015544;28;20057;-92
2024/03/06 09:51:47;;;;;;;67.07;20.50;;;6.30;99.90;;;;;;5017104;28;20061;-90
2024/03/06 09:54:17;;;;;;;60.72;21.48;;;6.50;99.90;;;;;;5020405;28;20034;-93
2024/03/06 09:56:44;;;;;;;61.70;21.52;;;6.60;99.90;;;;;;5023643;28;20032;-94
2024/03/06 09:59:11;;;;;;;67.05;20.77;;;6.70;99.90;;;;;;5018117;28;20089;-91
2024/03/06 10:01:47;;;;;;;69.53;21.42;;;6.80;99.90;;;;;;5000640;28;20472;-91
2024/03/06 10:04:19;;;;;;;57.47;19.95;;;7.00;99.90;;;;;;4991744;28;20050;-92
2024/03/06 10:06:46;;;;;;;67.88;23.05;;;7.10;99.90;;;;;;5003917;28;20093;-93
2024/03/06 10:09:18;;;;;;;56.25;22.13;;;7.20;99.90;;;;;;5001247;28;20186;-96
2024/03/06 10:11:44;;;;;;;62.85;21.60;;;7.20;99.90;;;;;;5012541;28;20093;-91
2024/03/06 10:14:10;;;;;;;56.22;20.65;;;7.30;99.90;;;;;;5018843;28;20026;-94
2024/03/06 10:16:36;;;;;;;62.58;23.00;;;7.30;99.90;;;;;;5017704;28;20158;-92
2024/03/06 10:19:18;;;;;;;61.28;20.60;;;7.50;99.90;;;;;;5035062;28;20077;-92
2024/03/06 10:21:48;;;;;;;52.78;22.73;;;7.70;99.90;;;;;;5011359;28;20047;-94
2024/03/06 10:24:20;;;;;;;54.88;21.08;;;7.90;99.90;;;;;;5000987;28;20068;-91
2024/03/06 10:26:47;;;;;;;57.88;20.92;;;8.10;99.90;;;;;;5011265;28;20102;-93
2024/03/06 10:29:20;;;;;;;43.75;19.30;;;8.40;99.90;;;;;;5016270;28;20029;-93
2024/03/06 10:31:52;;;;;;;48.90;22.52;;;8.60;99.90;;;;;;5015209;28;20100;-90
2024/03/06 10:34:18;;;;;;;50.15;22.33;;;9.00;99.90;;;;;;5014866;28;20086;-93
2024/03/06 10:36:44;;;;;;;47.38;20.20;;;9.20;99.90;;;;;;5018013;28;20025;-91
2024/03/06 10:39:14;;;;;;;52.47;21.50;;;9.50;99.90;;;;;;5010042;28;20056;-94
2024/03/06 10:41:41;;;;;;;61.90;22.07;;;9.70;99.90;;;;;;5005664;28;20029;-94
2024/03/06 10:44:13;;;;;;;49.60;19.23;;;10.00;99.90;;;;;;5004043;28;20076;-95
2024/03/06 10:46:44;;;;;;;46.85;19.13;;;10.30;99.90;;;;;;5014440;28;20034;-89
2024/03/06 10:49:11;;;;;;;49.30;21.25;;;10.50;99.90;;;;;;5014514;28;20060;-92
2024/03/06 10:51:43;;;;;;;46.60;19.70;;;10.60;99.90;;;;;;5019380;28;20022;-91
2024/03/06 10:54:11;;;;;;;42.95;19.30;;;10.70;99.90;;;;;;5019498;28;20010;-92
2024/03/06 10:56:42;;;;;;;51.15;19.70;;;10.80;99.90;;;;;;5015155;28;20029;-92
2024/03/06 10:59:12;;;;;;;41.42;19.02;;;11.00;99.90;;;;;;5015263;28;20006;-93
2024/03/06 11:01:43;;;;;;;38.67;17.73;;;11.20;99.90;;;;;;5019497;28;20021;-95
2024/03/06 11:04:11;;;;;;;39.92;17.58;;;11.50;99.90;;;;;;5003275;28;20498;-90
2024/03/06 11:06:37;;;;;;;39.30;18.50;;;11.60;99.90;;;;;;5000764;28;20030;-90
2024/03/06 11:09:03;;;;;;;47.95;18.05;;;11.50;99.90;;;;;;5030857;28;20030;-88
2024/03/06 11:11:31;;;;;;;38.22;17.23;;;11.40;99.90;;;;;;5022563;28;20026;-94
2024/03/06 11:14:03;;;;;;;43.88;18.55;;;11.30;99.90;;;;;;5022838;28;20050;-92
2024/03/06 11:16:52;;;;;;;42.55;18.67;;;11.30;99.90;;;;;;5023413;28;20030;-93
2024/03/06 11:19:18;;;;;;;39.35;17.83;;;11.40;99.90;;;;;;5022182;28;20021;-90
2024/03/06 11:21:48;;;;;;;37.83;18.10;;;11.40;99.90;;;;;;5023457;28;20058;-93
2024/03/06 11:24:31;;;;;;;40.88;17.98;;;11.40;99.90;;;;;;5022842;28;20042;-93
2024/03/06 11:27:00;;;;;;;40.30;17.30;;;11.30;99.90;;;;;;5021832;28;20041;-93
2024/03/06 11:29:50;;;;;;;46.40;19.52;;;11.50;99.90;;;;;;5019151;28;20068;-94
2024/03/06 11:32:17;;;;;;;32.08;15.23;;;11.80;99.90;;;;;;5018937;28;20192;-96
2024/03/06 11:34:43;;;;;;;30.20;15.18;;;12.20;99.90;;;;;;5018659;28;20010;-94
2024/03/06 11:37:09;;;;;;;33.63;15.07;;;12.60;99.90;;;;;;5020431;28;20103;-92
2024/03/06 11:39:40;;;;;;;31.63;14.82;;;13.00;99.90;;;;;;5020037;28;20034;-90
2024/03/06 11:42:08;;;;;;;28.23;13.27;;;13.20;99.90;;;;;;5022904;28;20267;-90
2024/03/06 11:44:34;;;;;;;31.00;13.90;;;13.40;99.90;;;;;;5021823;28;20040;-95
2024/03/06 11:47:01;;;;;;;31.55;14.15;;;13.60;99.90;;;;;;5021230;28;20028;-93
2024/03/06 11:49:33;;;;;;;28.13;12.85;;;13.60;99.90;;;;;;5020561;28;20026;-96
2024/03/06 11:52:08;;;;;;;27.15;12.38;;;13.50;99.90;;;;;;5018961;28;20017;-93
2024/03/06 11:54:34;;;;;;;27.30;13.77;;;13.50;99.90;;;;;;5017738;28;20053;-93
2024/03/06 11:57:02;;;;;;;23.02;11.38;;;13.50;99.90;;;;;;5020614;28;20057;-95
2024/03/06 11:59:29;;;;;;;27.58;12.80;;;13.60;99.90;;;;;;5038580;28;20050;-91
2024/03/06 12:01:56;;;;;;;29.67;13.40;;;13.60;99.00;;;;;;5018927;28;20018;-90
2024/03/06 12:04:24;;;;;;;28.10;13.63;;;13.50;97.30;;;;;;5021744;28;20042;-88
2024/03/06 12:06:50;;;;;;;26.08;12.90;;;13.30;96.90;;;;;;5019345;28;20042;-91
2024/03/06 12:09:16;;;;;;;29.10;12.77;;;13.00;96.80;;;;;;5003103;28;20030;-91
2024/03/06 12:11:45;;;;;;;25.38;12.25;;;12.80;97.20;;;;;;5002983;28;20821;-91
2024/03/06 12:14:18;;;;;;;26.92;12.38;;;12.70;97.40;;;;;;5008577;28;20029;-92
2024/03/06 12:16:57;;;;;;;24.60;13.02;;;12.50;97.30;;;;;;5014293;28;20010;-93
2024/03/06 12:26:22;;;;;;;31.42;12.20;;;12.10;97.80;;;;;;4997420;23;20043;-80
2024/03/06 12:28:48;;;;;;;24.50;12.32;;;12.50;98.30;;;;;;4995781;28;20030;-82
2024/03/06 12:31:14;;;;;;;26.38;11.95;;;13.00;97.90;;;;;;4995938;28;20029;-80
2024/03/06 12:33:39;;;;;;;22.50;10.15;;;13.60;96.90;;;;;;4997006;28;20536;-79
2024/03/06 12:36:10;;;;;;;22.00;11.05;;;13.90;95.10;;;;;;5014787;28;20394;-81
2024/03/06 12:38:36;;;;;;;22.23;11.05;;;14.40;94.00;;;;;;5014708;28;20410;-79
2024/03/06 12:41:02;;;;;;;25.00;11.27;;;14.60;92.20;;;;;;4997020;28;20034;-80